createdAt,value
2023-03-17T00:01:39.550Z,5.13
2023-03-17T00:03:44.565Z,5.73
2023-03-17T00:05:46.828Z,5.20
2023-03-17T00:07:51.571Z,5.07
2023-03-17T00:09:54.397Z,6.07
2023-03-17T00:11:56.608Z,5.50
2023-03-17T00:13:59.906Z,5.07
2023-03-17T00:16:05.327Z,5.20
2023-03-17T00:18:21.809Z,5.10
2023-03-17T00:20:29.947Z,4.80
2023-03-17T00:22:32.476Z,5.10
2023-03-17T00:24:34.736Z,4.90
2023-03-17T00:26:38.248Z,5.03
2023-03-17T00:28:40.459Z,5.20
2023-03-17T00:30:45.226Z,4.63
2023-03-17T00:32:51.751Z,5.47
2023-03-17T00:34:56.484Z,5.07
2023-03-17T00:37:00.806Z,4.50
2023-03-17T00:41:14.619Z,5.27
2023-03-17T00:43:18.299Z,5.00
2023-03-17T00:45:23.533Z,4.80
2023-03-17T00:47:28.020Z,4.13
2023-03-17T00:49:30.105Z,4.63
2023-03-17T00:51:32.326Z,4.93
2023-03-17T00:53:34.545Z,4.87
2023-03-17T00:55:40.128Z,5.10
2023-03-17T00:57:46.006Z,4.80
2023-03-17T00:59:48.394Z,4.60
2023-03-17T01:01:54.028Z,5.00
2023-03-17T01:03:57.510Z,4.77
2023-03-17T01:06:00.727Z,4.43
2023-03-17T01:08:07.828Z,5.33
2023-03-17T01:10:14.686Z,5.00
2023-03-17T01:12:20.523Z,5.00
2023-03-17T01:14:25.057Z,5.10
2023-03-17T01:16:28.821Z,4.40
2023-03-17T01:18:31.733Z,5.03
2023-03-17T01:20:34.712Z,4.17
2023-03-17T01:22:37.730Z,4.03
2023-03-17T01:24:41.223Z,4.20
2023-03-17T01:26:45.189Z,4.27
2023-03-17T01:28:47.986Z,4.50
2023-03-17T01:30:53.144Z,4.43
2023-03-17T01:32:56.723Z,4.50
2023-03-17T01:34:59.157Z,4.67
2023-03-17T01:37:02.524Z,4.20
2023-03-17T01:39:05.267Z,4.40
2023-03-17T01:41:08.393Z,4.37
2023-03-17T01:43:13.670Z,4.37
2023-03-17T01:45:54.032Z,4.30
2023-03-17T01:47:56.761Z,3.87
2023-03-17T01:50:02.593Z,3.83
2023-03-17T01:52:17.647Z,4.03
2023-03-17T01:54:51.877Z,4.27
2023-03-17T01:56:59.485Z,4.37
2023-03-17T01:59:03.402Z,4.07
2023-03-17T02:01:07.600Z,3.80
2023-03-17T02:03:10.532Z,3.77
2023-03-17T02:05:17.031Z,3.77
2023-03-17T02:07:22.313Z,4.67
2023-03-17T02:09:31.832Z,4.93
2023-03-17T02:11:35.108Z,4.47
2023-03-17T02:13:39.197Z,4.00
2023-03-17T02:15:45.548Z,3.60
2023-03-17T02:17:49.669Z,3.70
2023-03-17T02:19:52.059Z,3.90
2023-03-17T02:21:57.115Z,4.40
2023-03-17T02:24:01.747Z,4.10
2023-03-17T02:26:08.075Z,4.43
2023-03-17T02:28:15.213Z,3.83
2023-03-17T02:30:21.174Z,4.40
2023-03-17T02:32:23.581Z,3.90
2023-03-17T02:34:26.963Z,3.50
2023-03-17T02:36:29.183Z,4.40
2023-03-17T02:38:31.949Z,4.10
2023-03-17T02:40:35.771Z,3.13
2023-03-17T02:42:39.465Z,3.77
2023-03-17T02:44:43.696Z,3.67
2023-03-17T02:46:46.996Z,3.70
2023-03-17T02:48:49.401Z,4.30
2023-03-17T02:50:57.500Z,4.00
2023-03-17T02:52:59.790Z,3.70
2023-03-17T02:55:02.899Z,3.80
2023-03-17T02:57:07.738Z,3.60
2023-03-17T02:59:10.044Z,4.50
2023-03-17T03:01:15.686Z,3.80
2023-03-17T03:03:17.994Z,3.57
2023-03-17T03:05:22.439Z,3.43
2023-03-17T03:07:25.079Z,3.77
2023-03-17T03:09:27.598Z,3.40
2023-03-17T03:11:29.973Z,3.50
2023-03-17T03:13:32.908Z,3.57
2023-03-17T03:15:35.916Z,3.30
2023-03-17T03:17:38.443Z,3.37
2023-03-17T03:19:41.364Z,3.50
2023-03-17T03:21:46.899Z,3.70
2023-03-17T03:23:50.088Z,3.40
2023-03-17T03:25:52.726Z,3.40
2023-03-17T03:27:55.894Z,3.80
2023-03-17T03:29:58.067Z,3.60
2023-03-17T03:32:02.623Z,4.07
2023-03-17T03:34:06.870Z,4.20
2023-03-17T03:36:13.420Z,3.50
2023-03-17T03:38:16.154Z,3.53
2023-03-17T03:40:18.372Z,3.67
2023-03-17T03:42:21.176Z,3.87
2023-03-17T03:44:23.358Z,3.57
2023-03-17T03:46:26.744Z,3.80
2023-03-17T03:48:29.302Z,3.50
2023-03-17T03:50:32.781Z,3.57
2023-03-17T03:52:35.534Z,3.80
2023-03-17T03:54:37.756Z,3.67
2023-03-17T03:56:43.354Z,3.53
2023-03-17T03:58:53.550Z,3.63
2023-03-17T04:00:57.128Z,3.80
2023-03-17T04:03:02.095Z,3.60
2023-03-17T04:05:09.013Z,3.13
2023-03-17T04:07:16.136Z,4.03
2023-03-17T04:09:18.221Z,3.50
2023-03-17T04:11:21.686Z,3.70
2023-03-17T04:13:27.864Z,3.40
2023-03-17T04:15:31.244Z,3.30
2023-03-17T04:17:34.318Z,3.50
2023-03-17T04:19:37.459Z,3.27
2023-03-17T04:21:40.882Z,3.30
2023-03-17T04:23:43.321Z,3.30
2023-03-17T04:25:46.143Z,3.17
2023-03-17T04:27:51.739Z,3.53
2023-03-17T04:29:54.661Z,3.23
2023-03-17T04:32:01.462Z,3.20
2023-03-17T04:34:05.181Z,2.80
2023-03-17T04:36:12.583Z,3.17
2023-03-17T04:38:16.562Z,3.90
2023-03-17T04:40:20.288Z,3.30
2023-03-17T04:42:23.999Z,3.37
2023-03-17T04:44:26.312Z,3.60
2023-03-17T04:46:28.881Z,3.70
2023-03-17T04:48:31.569Z,2.80
2023-03-17T04:50:34.927Z,3.10
2023-03-17T04:52:38.141Z,3.10
2023-03-17T04:54:42.905Z,3.60
2023-03-17T04:56:47.739Z,3.27
2023-03-17T04:58:50.091Z,3.13
2023-03-17T05:00:52.357Z,2.70
2023-03-17T05:02:54.909Z,3.13
2023-03-17T05:04:58.664Z,3.30
2023-03-17T05:07:03.622Z,2.83
2023-03-17T05:09:10.111Z,3.50
2023-03-17T05:11:14.076Z,3.00
2023-03-17T05:13:16.555Z,2.90
2023-03-17T05:15:20.098Z,3.27
2023-03-17T05:17:23.828Z,3.43
2023-03-17T05:19:27.045Z,3.47
2023-03-17T05:21:29.852Z,3.30
2023-03-17T05:23:35.218Z,3.30
2023-03-17T05:25:40.553Z,2.67
2023-03-17T05:27:44.901Z,3.20
2023-03-17T05:29:50.336Z,3.50
2023-03-17T05:31:52.688Z,3.50
2023-03-17T05:33:56.915Z,3.77
2023-03-17T05:35:59.677Z,2.70
2023-03-17T05:38:05.136Z,3.10
2023-03-17T05:40:10.779Z,3.10
2023-03-17T05:42:16.670Z,4.00
2023-03-17T05:44:20.978Z,3.77
2023-03-17T05:46:23.668Z,3.60
2023-03-17T05:48:26.639Z,3.37
2023-03-17T05:50:29.659Z,3.23
2023-03-17T05:52:34.593Z,3.20
2023-03-17T05:54:39.536Z,3.27
2023-03-17T05:56:42.877Z,3.80
2023-03-17T05:58:45.491Z,3.50
2023-03-17T06:00:48.799Z,3.40
2023-03-17T06:02:51.140Z,3.60
2023-03-17T06:04:56.444Z,3.50
2023-03-17T06:06:58.851Z,3.00
2023-03-17T06:09:01.538Z,3.10
2023-03-17T06:11:11.361Z,3.50
2023-03-17T06:13:13.918Z,3.70
2023-03-17T06:15:19.884Z,3.53
2023-03-17T06:17:25.359Z,3.50
2023-03-17T06:19:27.779Z,2.80
2023-03-17T06:21:30.116Z,3.23
2023-03-17T06:23:33.386Z,2.83
2023-03-17T06:25:36.024Z,3.90
2023-03-17T06:27:39.036Z,3.23
2023-03-17T06:29:41.311Z,3.30
2023-03-17T06:31:51.327Z,4.07
2023-03-17T06:33:53.644Z,3.43
2023-03-17T06:36:00.009Z,3.30
2023-03-17T06:38:02.444Z,3.27
2023-03-17T06:40:09.109Z,3.10
2023-03-17T06:42:11.642Z,3.70
2023-03-17T06:44:14.470Z,3.60
2023-03-17T06:46:17.685Z,3.70
2023-03-17T06:48:23.683Z,4.10
2023-03-17T06:50:26.428Z,3.80
2023-03-17T06:52:28.725Z,3.77
2023-03-17T06:54:31.723Z,4.13
2023-03-17T06:56:35.058Z,3.03
2023-03-17T06:58:38.539Z,3.30
2023-03-17T07:00:41.047Z,3.27
2023-03-17T07:02:46.219Z,3.43
2023-03-17T07:04:48.991Z,2.70
2023-03-17T07:06:51.966Z,2.90
2023-03-17T07:08:55.382Z,2.70
2023-03-17T07:10:57.891Z,3.20
2023-03-17T07:13:02.496Z,3.60
2023-03-17T07:15:05.652Z,3.13
2023-03-17T07:17:14.664Z,2.93
2023-03-17T07:19:17.380Z,3.20
2023-03-17T07:21:19.850Z,3.43
2023-03-17T07:23:24.404Z,2.97
2023-03-17T07:25:28.402Z,3.03
2023-03-17T07:27:31.289Z,3.30
2023-03-17T07:29:36.120Z,3.00
2023-03-17T07:31:38.719Z,2.70
2023-03-17T07:33:41.563Z,3.10
2023-03-17T07:35:49.098Z,3.07
2023-03-17T07:37:51.311Z,3.00
2023-03-17T07:39:57.367Z,3.03
2023-03-17T07:42:03.455Z,3.10
2023-03-17T07:44:05.850Z,3.00
2023-03-17T07:46:08.589Z,3.00
2023-03-17T07:48:11.580Z,3.40
2023-03-17T07:50:14.350Z,3.40
2023-03-17T07:52:17.588Z,3.37
2023-03-17T07:54:28.972Z,3.10
2023-03-17T07:56:32.558Z,3.47
2023-03-17T07:58:38.484Z,3.20
2023-03-17T08:00:40.739Z,3.27
2023-03-17T08:02:43.975Z,3.83
2023-03-17T08:04:46.376Z,3.47
2023-03-17T08:06:52.008Z,6.03
2023-03-17T08:08:55.021Z,4.10
2023-03-17T08:11:05.164Z,3.27
2023-03-17T08:13:07.811Z,3.30
2023-03-17T08:15:10.949Z,2.90
2023-03-17T08:17:14.169Z,3.70
2023-03-17T08:19:17.718Z,3.00
2023-03-17T08:21:20.324Z,2.93
2023-03-17T08:23:23.762Z,3.40
2023-03-17T08:25:27.570Z,2.50
2023-03-17T08:27:32.493Z,3.10
2023-03-17T08:29:36.049Z,3.80
2023-03-17T08:31:38.560Z,3.03
2023-03-17T08:33:42.473Z,3.40
2023-03-17T08:35:49.783Z,2.63
2023-03-17T08:37:55.046Z,3.00
2023-03-17T08:40:08.351Z,3.20
2023-03-17T08:42:11.956Z,3.47
2023-03-17T08:44:15.361Z,3.00
2023-03-17T08:46:29.262Z,3.50
2023-03-17T08:48:33.295Z,2.80
2023-03-17T08:50:38.039Z,2.70
2023-03-17T08:52:41.526Z,2.73
2023-03-17T08:54:44.200Z,2.60
2023-03-17T08:56:46.862Z,2.97
2023-03-17T08:58:51.805Z,2.50
2023-03-17T09:00:54.326Z,2.27
2023-03-17T09:02:59.301Z,3.27
2023-03-17T09:05:02.587Z,3.37
2023-03-17T09:07:08.404Z,3.40
2023-03-17T09:09:15.883Z,2.20
2023-03-17T09:11:24.170Z,2.57
2023-03-17T09:13:26.655Z,2.90
2023-03-17T09:15:34.316Z,2.80
2023-03-17T09:17:36.763Z,2.80
2023-03-17T09:19:41.651Z,3.17
2023-03-17T09:21:45.092Z,2.70
2023-03-17T09:23:47.430Z,2.97
2023-03-17T09:25:50.102Z,3.10
2023-03-17T09:27:56.828Z,3.00
2023-03-17T09:29:59.150Z,2.63
2023-03-17T09:32:04.704Z,2.70
2023-03-17T09:34:06.951Z,2.77
2023-03-17T09:36:11.094Z,2.80
2023-03-17T09:38:13.719Z,3.07
2023-03-17T09:40:23.319Z,2.50
2023-03-17T09:42:50.597Z,3.10
2023-03-17T09:44:59.011Z,2.87
2023-03-17T09:47:31.667Z,2.80
2023-03-17T09:49:49.904Z,2.50
2023-03-17T09:51:52.553Z,3.00
2023-03-17T09:54:00.225Z,3.00
2023-03-17T09:56:07.305Z,3.00
2023-03-17T09:58:11.361Z,2.50
2023-03-17T10:00:24.207Z,2.70
2023-03-17T10:02:30.717Z,2.83
2023-03-17T10:04:33.276Z,2.80
2023-03-17T10:06:42.125Z,2.80
2023-03-17T10:08:56.501Z,3.20
2023-03-17T10:11:22.409Z,2.57
2023-03-17T10:13:59.394Z,3.20
2023-03-17T10:16:14.478Z,3.50
2023-03-17T10:18:17.656Z,3.23
2023-03-17T10:20:27.963Z,3.10
2023-03-17T10:22:46.314Z,3.40
2023-03-17T10:24:53.836Z,3.00
2023-03-17T10:26:58.003Z,3.03
2023-03-17T10:29:06.086Z,2.87
2023-03-17T10:31:20.790Z,2.70
2023-03-17T10:33:26.658Z,3.20
2023-03-17T10:35:31.419Z,2.50
2023-03-17T10:37:36.972Z,2.77
2023-03-17T10:39:49.377Z,2.80
2023-03-17T10:41:59.736Z,2.30
2023-03-17T10:44:09.756Z,2.80
2023-03-17T10:46:24.404Z,2.30
2023-03-17T10:48:27.083Z,3.10
2023-03-17T10:50:34.153Z,3.00
2023-03-17T10:52:40.014Z,2.40
2023-03-17T10:54:47.953Z,2.63
2023-03-17T10:56:58.885Z,2.80
2023-03-17T10:59:07.537Z,2.53
2023-03-17T11:01:22.143Z,2.50
2023-03-17T11:03:30.155Z,2.40
2023-03-17T11:05:33.092Z,2.27
2023-03-17T11:07:41.348Z,2.10
2023-03-17T11:09:53.617Z,2.77
2023-03-17T11:12:04.497Z,2.43
2023-03-17T11:14:16.254Z,2.73
2023-03-17T11:16:23.299Z,2.00
2023-03-17T11:18:33.433Z,2.43
2023-03-17T11:20:42.233Z,2.50
2023-03-17T11:22:52.341Z,2.70
2023-03-17T11:25:01.751Z,2.60
2023-03-17T11:27:18.580Z,2.40
2023-03-17T11:29:39.808Z,2.13
2023-03-17T11:31:46.205Z,2.23
2023-03-17T11:34:09.089Z,2.53
2023-03-17T11:36:27.239Z,2.20
2023-03-17T11:39:09.002Z,2.30
2023-03-17T11:41:27.294Z,2.40
2023-03-17T11:43:39.620Z,2.40
2023-03-17T11:46:12.828Z,2.23
2023-03-17T11:49:02.974Z,1.97
2023-03-17T11:51:27.709Z,2.80
2023-03-17T11:53:39.605Z,2.20
2023-03-17T11:55:55.909Z,2.00
2023-03-17T11:58:03.895Z,2.50
2023-03-17T12:00:17.037Z,1.97
2023-03-17T12:02:29.469Z,2.70
2023-03-17T12:04:51.495Z,2.23
2023-03-17T12:06:59.427Z,1.97
2023-03-17T12:09:10.198Z,2.33
2023-03-17T12:11:15.453Z,2.50
2023-03-17T12:13:53.914Z,2.70
2023-03-17T12:16:07.583Z,2.47
2023-03-17T12:18:24.341Z,2.20
2023-03-17T12:20:46.779Z,2.10
2023-03-17T12:22:57.101Z,2.20
2023-03-17T12:25:18.125Z,2.27
2023-03-17T12:27:32.685Z,2.60
2023-03-17T12:29:50.008Z,2.00
2023-03-17T12:32:12.684Z,2.20
2023-03-17T12:34:34.858Z,2.43
2023-03-17T12:36:40.349Z,2.33
2023-03-17T12:39:01.865Z,1.97
2023-03-17T12:41:46.620Z,1.87
2023-03-17T12:43:58.352Z,2.37
2023-03-17T12:46:30.115Z,2.40
2023-03-17T12:48:50.986Z,1.87
2023-03-17T12:51:15.139Z,2.20
2023-03-17T12:53:22.920Z,2.13
2023-03-17T12:55:27.421Z,1.70
2023-03-17T12:57:41.387Z,2.17
2023-03-17T12:59:45.621Z,1.90
2023-03-17T13:02:26.357Z,1.97
2023-03-17T13:04:35.552Z,2.07
2023-03-17T13:07:02.582Z,2.50
2023-03-17T13:09:37.859Z,2.03
2023-03-17T13:11:47.131Z,2.17
2023-03-17T13:13:59.140Z,2.10
2023-03-17T13:16:04.523Z,2.20
2023-03-17T13:18:13.699Z,2.20
2023-03-17T13:20:18.342Z,2.07
2023-03-17T13:22:21.494Z,2.00
2023-03-17T13:24:50.260Z,2.10
2023-03-17T13:27:01.995Z,2.13
2023-03-17T13:29:25.846Z,1.80
2023-03-17T13:31:29.477Z,2.00
2023-03-17T13:33:33.149Z,1.93
2023-03-17T13:36:20.621Z,2.20
2023-03-17T13:38:45.461Z,2.10
2023-03-17T13:41:12.635Z,2.33
2023-03-17T13:43:43.519Z,2.30
2023-03-17T13:45:47.671Z,2.47
2023-03-17T13:47:53.746Z,1.93
2023-03-17T13:50:03.955Z,1.90
2023-03-17T13:52:18.313Z,2.80
2023-03-17T13:54:24.154Z,2.30
2023-03-17T13:56:36.739Z,2.40
2023-03-17T13:59:02.464Z,2.00
2023-03-17T14:01:07.388Z,2.37
2023-03-17T14:03:38.433Z,2.17
2023-03-17T14:05:46.249Z,2.60
2023-03-17T14:08:04.057Z,2.00
2023-03-17T14:10:10.872Z,2.13
2023-03-17T14:12:18.107Z,2.70
2023-03-17T14:14:32.903Z,2.10
2023-03-17T14:16:44.705Z,2.20
2023-03-17T14:18:50.703Z,2.10
2023-03-17T14:20:57.156Z,2.33
2023-03-17T14:23:03.960Z,2.30
2023-03-17T14:25:09.000Z,2.30
2023-03-17T14:27:16.162Z,2.20
2023-03-17T14:29:25.814Z,2.10
2023-03-17T14:31:30.624Z,2.20
2023-03-17T14:33:40.065Z,2.20
2023-03-17T14:35:44.744Z,2.40
2023-03-17T14:37:47.108Z,2.03
2023-03-17T14:39:54.439Z,2.50
2023-03-17T14:42:01.930Z,2.60
2023-03-17T14:44:08.964Z,2.07
2023-03-17T14:46:22.877Z,2.60
2023-03-17T14:48:37.467Z,2.10
2023-03-17T14:50:53.150Z,2.20
2023-03-17T14:53:00.488Z,1.90
2023-03-17T14:55:03.317Z,2.03
2023-03-17T14:57:07.768Z,1.87
2023-03-17T14:59:29.988Z,2.00
2023-03-17T15:01:39.891Z,1.87
2023-03-17T15:04:33.297Z,2.37
2023-03-17T15:06:37.526Z,1.87
2023-03-17T15:08:43.462Z,2.00
2023-03-17T15:10:47.508Z,2.10
2023-03-17T15:13:01.448Z,2.03
2023-03-17T15:15:09.365Z,2.20
2023-03-17T15:17:21.012Z,2.10
2023-03-17T15:19:27.596Z,2.50
2023-03-17T15:21:42.661Z,2.10
2023-03-17T15:23:48.252Z,1.93
2023-03-17T15:25:57.747Z,2.43
2023-03-17T15:28:00.429Z,2.23
2023-03-17T15:30:03.320Z,2.40
2023-03-17T15:32:20.685Z,2.17
2023-03-17T15:34:22.953Z,1.93
2023-03-17T15:36:32.716Z,2.53
2023-03-17T15:38:38.947Z,2.70
2023-03-17T15:40:43.308Z,3.60
2023-03-17T15:42:50.379Z,2.83
2023-03-17T15:44:53.377Z,2.87
2023-03-17T15:46:55.735Z,2.30
2023-03-17T15:48:58.426Z,2.33
2023-03-17T15:51:02.244Z,2.50
2023-03-17T15:53:06.874Z,2.77
2023-03-17T15:55:21.719Z,2.83
2023-03-17T15:57:24.888Z,3.17
2023-03-17T15:59:27.205Z,2.80
2023-03-17T16:01:29.829Z,2.30
2023-03-17T16:03:37.727Z,2.43
2023-03-17T16:05:40.481Z,3.07
2023-03-17T16:07:45.196Z,3.30
2023-03-17T16:09:49.315Z,4.13
2023-03-17T16:11:53.311Z,4.60
2023-03-17T16:13:59.801Z,4.50
2023-03-17T16:16:07.701Z,4.17
2023-03-17T16:18:18.207Z,3.83
2023-03-17T16:20:34.364Z,3.80
2023-03-17T16:22:45.664Z,3.70
2023-03-17T16:24:49.367Z,3.90
2023-03-17T16:26:54.004Z,4.20
2023-03-17T16:28:56.999Z,2.90
2023-03-17T16:31:01.107Z,3.73
2023-03-17T16:33:17.178Z,4.57
2023-03-17T16:35:21.909Z,21.63
2023-03-17T16:37:25.122Z,18.10
2023-03-17T16:39:27.860Z,8.27
2023-03-17T16:41:35.075Z,8.20
2023-03-17T16:43:38.251Z,5.53
2023-03-17T16:45:41.808Z,5.70
2023-03-17T16:47:46.165Z,3.70
2023-03-17T16:49:48.518Z,10.90
2023-03-17T16:51:51.258Z,14.37
2023-03-17T16:53:53.830Z,9.97
2023-03-17T16:55:56.565Z,7.20
2023-03-17T16:58:01.675Z,5.13
2023-03-17T17:00:05.944Z,4.50
2023-03-17T17:02:17.960Z,6.20
2023-03-17T17:04:21.920Z,3.70
2023-03-17T17:06:24.833Z,4.20
2023-03-17T17:08:33.609Z,3.63
2023-03-17T17:10:38.667Z,3.33
2023-03-17T17:12:42.656Z,4.13
2023-03-17T17:14:47.348Z,4.60
2023-03-17T17:16:51.731Z,4.23
2023-03-17T17:18:55.024Z,4.10
2023-03-17T17:20:58.348Z,4.20
2023-03-17T17:23:01.809Z,4.37
2023-03-17T17:25:04.723Z,4.40
2023-03-17T17:27:07.163Z,5.37
2023-03-17T17:29:09.537Z,4.73
2023-03-17T17:31:12.362Z,3.73
2023-03-17T17:33:17.485Z,3.13
2023-03-17T17:35:19.922Z,3.93
2023-03-17T17:37:23.462Z,3.37
2023-03-17T17:39:26.225Z,4.37
2023-03-17T17:41:32.606Z,4.20
2023-03-17T17:43:35.929Z,4.17
2023-03-17T17:45:39.215Z,4.00
2023-03-17T17:47:45.292Z,3.80
2023-03-17T17:49:50.298Z,3.67
2023-03-17T17:51:52.862Z,3.00
2023-03-17T17:53:55.602Z,3.20
2023-03-17T17:56:00.291Z,3.20
2023-03-17T17:58:02.584Z,4.30
2023-03-17T18:00:06.610Z,3.90
2023-03-17T18:02:13.085Z,3.00
2023-03-17T18:04:16.745Z,3.07
2023-03-17T18:06:19.154Z,2.80
2023-03-17T18:08:25.455Z,2.73
2023-03-17T18:10:28.649Z,2.83
2023-03-17T18:12:31.698Z,3.13
2023-03-17T18:14:34.011Z,3.23
2023-03-17T18:16:38.196Z,3.10
2023-03-17T18:18:42.547Z,3.33
2023-03-17T18:20:45.115Z,4.00
2023-03-17T18:22:50.881Z,3.40
2023-03-17T18:24:53.326Z,5.30
2023-03-17T18:26:56.838Z,24.07
2023-03-17T18:28:59.568Z,10.73
2023-03-17T18:31:10.587Z,14.67
2023-03-17T18:33:16.638Z,8.90
2023-03-17T18:35:21.826Z,6.57
2023-03-17T18:37:25.489Z,8.17
2023-03-17T18:39:29.090Z,6.77
2023-03-17T18:41:33.275Z,7.03
2023-03-17T18:43:35.513Z,7.40
2023-03-17T18:45:37.788Z,6.00
2023-03-17T18:47:41.965Z,6.67
2023-03-17T18:49:46.708Z,6.60
2023-03-17T18:51:49.970Z,6.00
2023-03-17T18:53:52.117Z,7.43
2023-03-17T18:55:54.307Z,7.30
2023-03-17T18:57:56.677Z,7.87
2023-03-17T18:59:58.853Z,5.80
2023-03-17T19:02:01.713Z,4.63
2023-03-17T19:04:05.716Z,4.57
2023-03-17T19:06:13.186Z,3.80
2023-03-17T19:08:16.724Z,3.90
2023-03-17T19:10:19.162Z,4.40
2023-03-17T19:12:22.527Z,4.47
2023-03-17T19:14:24.693Z,4.77
2023-03-17T19:16:29.003Z,5.40
2023-03-17T19:18:32.092Z,5.40
2023-03-17T19:20:36.210Z,4.97
2023-03-17T19:22:38.390Z,6.53
2023-03-17T19:24:41.255Z,5.47
2023-03-17T19:26:43.373Z,6.10
2023-03-17T19:28:45.836Z,4.90
2023-03-17T19:30:48.165Z,5.40
2023-03-17T19:32:50.564Z,5.93
2023-03-17T19:34:54.238Z,6.67
2023-03-17T19:36:56.429Z,5.37
2023-03-17T19:38:58.512Z,6.17
2023-03-17T19:41:03.581Z,7.03
2023-03-17T19:43:06.482Z,6.20
2023-03-17T19:45:09.299Z,6.70
2023-03-17T19:47:11.530Z,6.30
2023-03-17T19:49:14.210Z,7.00
2023-03-17T19:51:16.954Z,6.47
2023-03-17T19:53:19.146Z,7.10
2023-03-17T19:55:21.786Z,6.47
2023-03-17T19:57:23.946Z,7.37
2023-03-17T19:59:26.547Z,6.87
2023-03-17T20:01:30.205Z,6.70
2023-03-17T20:03:33.715Z,6.70
2023-03-17T20:05:36.943Z,6.90
2023-03-17T20:07:39.147Z,6.37
2023-03-17T20:09:44.608Z,7.87
2023-03-17T20:11:47.197Z,6.70
2023-03-17T20:13:50.485Z,6.80
2023-03-17T20:15:53.039Z,8.23
2023-03-17T20:17:55.298Z,6.80
2023-03-17T20:19:57.379Z,7.70
2023-03-17T20:21:59.502Z,7.20
2023-03-17T20:24:02.402Z,6.73
2023-03-17T20:26:04.873Z,6.87
2023-03-17T20:28:07.366Z,5.80
2023-03-17T20:30:12.216Z,7.50
2023-03-17T20:32:17.268Z,7.03
2023-03-17T20:34:21.612Z,7.53
2023-03-17T20:36:24.874Z,6.33
2023-03-17T20:38:27.319Z,6.73
2023-03-17T20:40:30.009Z,5.93
2023-03-17T20:42:32.871Z,7.87
2023-03-17T20:44:34.996Z,6.80
2023-03-17T20:46:37.295Z,7.70
2023-03-17T20:48:39.702Z,6.60
2023-03-17T20:50:49.901Z,7.00
2023-03-17T20:52:52.664Z,6.27
2023-03-17T20:54:55.145Z,6.90
2023-03-17T20:56:57.711Z,7.80
2023-03-17T20:59:05.148Z,7.67
2023-03-17T21:01:09.198Z,7.23
2023-03-17T21:03:11.416Z,7.37
2023-03-17T21:05:19.900Z,7.10
2023-03-17T21:07:22.697Z,7.87
2023-03-17T21:09:24.815Z,7.27
2023-03-17T21:11:27.113Z,7.53
2023-03-17T21:13:30.281Z,7.37
2023-03-17T21:15:32.944Z,7.40
2023-03-17T21:17:35.387Z,7.83
2023-03-17T21:19:38.112Z,7.63
2023-03-17T21:21:40.374Z,7.70
2023-03-17T21:23:42.940Z,8.30
2023-03-17T21:25:45.470Z,7.90
2023-03-17T21:27:47.978Z,7.93
2023-03-17T21:29:50.453Z,7.83
2023-03-17T21:31:53.101Z,6.83
2023-03-17T21:33:56.366Z,7.07
2023-03-17T21:35:58.851Z,8.20
2023-03-17T21:38:01.650Z,7.27
2023-03-17T21:40:08.208Z,8.30
2023-03-17T21:42:12.318Z,7.90
2023-03-17T21:44:16.019Z,8.60
2023-03-17T21:46:18.333Z,9.20
2023-03-17T21:48:20.864Z,8.17
2023-03-17T21:50:23.183Z,7.77
2023-03-17T21:52:26.007Z,7.50
2023-03-17T21:54:30.594Z,8.73
2023-03-17T21:56:33.460Z,8.30
2023-03-17T21:58:36.115Z,7.90
2023-03-17T22:00:45.223Z,8.93
2023-03-17T22:02:47.929Z,8.10
2023-03-17T22:04:50.081Z,9.30
2023-03-17T22:06:53.699Z,8.10
2023-03-17T22:08:56.101Z,9.30
2023-03-17T22:10:58.294Z,7.47
2023-03-17T22:13:01.272Z,7.50
2023-03-17T22:15:04.431Z,7.93
2023-03-17T22:17:06.858Z,8.57
2023-03-17T22:19:10.319Z,6.70
2023-03-17T22:21:12.547Z,8.10
2023-03-17T22:23:15.485Z,8.40
2023-03-17T22:25:18.003Z,8.60
2023-03-17T22:27:21.420Z,8.63
2023-03-17T22:29:24.603Z,8.87
2023-03-17T22:31:28.461Z,7.93
2023-03-17T22:33:30.967Z,8.43
2023-03-17T22:35:34.179Z,8.33
2023-03-17T22:37:36.585Z,7.20
2023-03-17T22:39:40.050Z,7.73
2023-03-17T22:41:42.519Z,7.60
2023-03-17T22:43:45.425Z,8.30
2023-03-17T22:45:47.729Z,8.43
2023-03-17T22:47:53.012Z,8.17
2023-03-17T22:49:55.076Z,9.40
2023-03-17T22:51:57.651Z,9.20
2023-03-17T22:54:00.738Z,8.60
2023-03-17T22:56:05.877Z,7.63
2023-03-17T22:58:09.885Z,7.90
2023-03-17T23:00:17.835Z,7.27
2023-03-17T23:02:21.816Z,7.13
2023-03-17T23:04:25.651Z,9.17
2023-03-17T23:06:28.427Z,8.00
2023-03-17T23:08:32.204Z,7.63
2023-03-17T23:10:34.482Z,7.77
2023-03-17T23:12:38.221Z,7.93
2023-03-17T23:14:40.332Z,8.10
2023-03-17T23:16:43.393Z,8.00
2023-03-17T23:18:46.952Z,7.27
2023-03-17T23:20:50.784Z,7.73
2023-03-17T23:22:52.969Z,7.53
2023-03-17T23:24:57.584Z,8.30
2023-03-17T23:26:59.868Z,8.23
2023-03-17T23:29:03.388Z,7.30
2023-03-17T23:31:07.147Z,8.00
2023-03-17T23:33:10.199Z,7.57
2023-03-17T23:35:14.909Z,7.70
2023-03-17T23:37:17.145Z,7.37
2023-03-17T23:39:19.512Z,7.03
2023-03-17T23:41:23.803Z,7.70
2023-03-17T23:43:26.491Z,7.50
2023-03-17T23:45:29.021Z,7.97
2023-03-17T23:47:34.324Z,7.70
2023-03-17T23:49:36.624Z,7.20
2023-03-17T23:51:39.227Z,7.97
2023-03-17T23:53:41.991Z,8.40
2023-03-17T23:55:45.634Z,7.47
2023-03-17T23:57:48.087Z,7.83
2023-03-17T23:59:50.584Z,7.77
